createdAt,value
2022-11-24T00:00:14.050Z,89.09
2022-11-24T00:01:14.061Z,88.78
2022-11-24T00:02:14.197Z,88.37
2022-11-24T00:03:14.219Z,88.37
2022-11-24T00:04:14.172Z,88.78
2022-11-24T00:05:14.172Z,88.47
2022-11-24T00:06:14.190Z,88.78
2022-11-24T00:07:14.249Z,88.47
2022-11-24T00:08:14.232Z,88.78
2022-11-24T00:09:14.233Z,88.98
2022-11-24T00:10:14.232Z,88.57
2022-11-24T00:11:14.238Z,88.53
2022-11-24T00:12:14.253Z,88.57
2022-11-24T00:13:14.253Z,88.89
2022-11-24T00:14:14.264Z,88.68
2022-11-24T00:15:14.289Z,88.89
2022-11-24T00:16:14.393Z,88.95
2022-11-24T00:17:14.316Z,89.09
2022-11-24T00:18:14.325Z,89.09
2022-11-24T00:19:19.404Z,89.04
2022-11-24T00:20:14.325Z,88.95
2022-11-24T00:21:14.326Z,88.64
2022-11-24T00:22:14.325Z,88.74
2022-11-24T00:23:14.327Z,88.84
2022-11-24T00:24:14.334Z,88.95
2022-11-24T00:25:14.326Z,88.64
2022-11-24T00:26:14.326Z,89.09
2022-11-24T00:27:14.326Z,89.15
2022-11-24T00:28:14.327Z,89.04
2022-11-24T00:29:14.316Z,88.74
2022-11-24T00:30:14.327Z,88.49
2022-11-24T00:31:17.252Z,88.43
2022-11-24T00:32:14.368Z,88.33
2022-11-24T00:33:14.428Z,88.43
2022-11-24T00:34:14.418Z,88.84
2022-11-24T00:35:14.427Z,88.74
2022-11-24T00:36:14.449Z,88.95
2022-11-24T00:37:14.467Z,88.59
2022-11-24T00:38:14.451Z,88.08
2022-11-24T00:39:14.520Z,87.88
2022-11-24T00:40:14.552Z,87.84
2022-11-24T00:41:14.562Z,87.63
2022-11-24T00:42:14.572Z,87.43
2022-11-24T00:43:14.569Z,87.53
2022-11-24T00:44:14.562Z,87.67
2022-11-24T00:45:14.621Z,87.98
2022-11-24T00:46:14.833Z,88.29
2022-11-24T00:47:14.832Z,88.39
2022-11-24T00:48:14.761Z,88.18
2022-11-24T00:49:14.781Z,88.49
2022-11-24T00:50:14.793Z,88.59
2022-11-24T00:51:14.790Z,88.49
2022-11-24T00:52:14.785Z,88.18
2022-11-24T00:53:14.830Z,88.49
2022-11-24T00:54:14.831Z,88.18
2022-11-24T00:55:14.822Z,88.18
2022-11-24T00:56:14.824Z,87.98
2022-11-24T00:57:14.834Z,88.39
2022-11-24T00:58:14.834Z,88.29
2022-11-24T00:59:14.832Z,88.59
2022-11-24T01:00:14.853Z,88.53
2022-11-24T01:01:14.915Z,88.84
2022-11-24T01:02:14.922Z,88.70
2022-11-24T01:03:14.885Z,88.80
2022-11-24T01:04:14.905Z,88.39
2022-11-24T01:05:14.896Z,88.39
2022-11-24T01:06:14.895Z,88.95
2022-11-24T01:07:14.933Z,88.64
2022-11-24T01:08:14.931Z,88.95
2022-11-24T01:09:14.948Z,89.04
2022-11-24T01:10:14.926Z,88.59
2022-11-24T01:11:14.931Z,88.59
2022-11-24T01:12:14.937Z,88.43
2022-11-24T01:13:14.927Z,89.04
2022-11-24T01:14:14.921Z,88.70
2022-11-24T01:15:14.937Z,88.95
2022-11-24T01:16:14.983Z,88.84
2022-11-24T01:17:14.998Z,88.80
2022-11-24T01:18:15.008Z,88.64
2022-11-24T01:19:15.238Z,88.95
2022-11-24T01:20:14.999Z,88.70
2022-11-24T01:21:14.989Z,88.39
2022-11-24T01:22:14.989Z,88.64
2022-11-24T01:23:14.995Z,89.04
2022-11-24T01:24:14.990Z,88.90
2022-11-24T01:25:14.981Z,88.80
2022-11-24T01:26:15.001Z,88.95
2022-11-24T01:27:14.990Z,88.84
2022-11-24T01:28:14.990Z,89.15
2022-11-24T01:29:14.982Z,89.25
2022-11-24T01:30:14.991Z,89.91
2022-11-24T01:31:15.027Z,89.87
2022-11-24T01:32:15.010Z,89.91
2022-11-24T01:33:15.002Z,89.97
2022-11-24T01:34:15.012Z,89.66
2022-11-24T01:35:15.004Z,89.70
2022-11-24T01:36:14.997Z,89.76
2022-11-24T01:37:15.024Z,89.46
2022-11-24T01:38:15.022Z,89.36
2022-11-24T01:39:15.035Z,89.70
2022-11-24T01:40:15.033Z,89.91
2022-11-24T01:41:15.033Z,89.87
2022-11-24T01:42:15.053Z,89.76
2022-11-24T01:43:15.044Z,89.36
2022-11-24T01:44:15.055Z,89.29
2022-11-24T01:45:15.054Z,89.60
2022-11-24T01:46:15.093Z,89.56
2022-11-24T01:47:15.104Z,89.50
2022-11-24T01:48:15.107Z,89.50
2022-11-24T01:49:15.123Z,89.91
2022-11-24T01:50:15.110Z,89.91
2022-11-24T01:51:15.114Z,89.70
2022-11-24T01:52:15.117Z,89.81
2022-11-24T01:53:15.117Z,89.91
2022-11-24T01:54:15.129Z,90.12
2022-11-24T01:55:15.118Z,90.01
2022-11-24T01:56:15.122Z,89.75
2022-11-24T01:57:15.127Z,89.85
2022-11-24T01:58:15.117Z,90.16
2022-11-24T01:59:15.138Z,91.08
2022-11-24T02:00:15.149Z,90.57
2022-11-24T02:01:15.166Z,90.67
2022-11-24T02:02:15.217Z,90.36
2022-11-24T02:03:15.200Z,90.06
2022-11-24T02:04:15.217Z,90.36
2022-11-24T02:05:15.216Z,90.81
2022-11-24T02:06:15.221Z,90.72
2022-11-24T02:07:15.291Z,91.02
2022-11-24T02:08:15.260Z,91.33
2022-11-24T02:09:15.278Z,91.23
2022-11-24T02:10:15.297Z,91.13
2022-11-24T02:11:15.290Z,91.33
2022-11-24T02:12:15.300Z,91.64
2022-11-24T02:13:15.310Z,91.74
2022-11-24T02:14:15.310Z,91.74
2022-11-24T02:15:15.330Z,91.85
2022-11-24T02:16:15.385Z,91.85
2022-11-24T02:17:15.344Z,91.74
2022-11-24T02:18:15.351Z,91.44
2022-11-24T02:19:15.360Z,91.33
2022-11-24T02:20:15.363Z,91.89
2022-11-24T02:21:15.376Z,92.16
2022-11-24T02:22:15.381Z,91.74
2022-11-24T02:23:15.421Z,91.64
2022-11-24T02:24:15.422Z,91.44
2022-11-24T02:25:15.430Z,91.06
2022-11-24T02:26:15.429Z,91.89
2022-11-24T02:27:15.422Z,91.89
2022-11-24T02:28:15.440Z,91.68
2022-11-24T02:29:15.445Z,91.89
2022-11-24T02:30:15.435Z,91.78
2022-11-24T02:31:15.456Z,92.30
2022-11-24T02:32:15.466Z,92.92
2022-11-24T02:33:15.455Z,93.02
2022-11-24T02:34:15.452Z,92.92
2022-11-24T02:35:15.455Z,92.71
2022-11-24T02:36:15.436Z,92.82
2022-11-24T02:37:15.445Z,92.61
2022-11-24T02:38:15.436Z,92.92
2022-11-24T02:39:15.437Z,92.92
2022-11-24T02:40:15.432Z,92.92
2022-11-24T02:41:15.417Z,92.82
2022-11-24T02:42:15.417Z,92.92
2022-11-24T02:43:15.424Z,93.02
2022-11-24T02:44:15.417Z,92.92
2022-11-24T02:45:15.436Z,92.82
2022-11-24T02:46:15.442Z,93.02
2022-11-24T02:47:15.445Z,92.92
2022-11-24T02:48:15.457Z,92.92
2022-11-24T02:49:15.448Z,92.92
2022-11-24T02:50:15.448Z,92.92
2022-11-24T02:51:15.438Z,92.71
2022-11-24T02:52:15.441Z,92.50
2022-11-24T02:53:15.443Z,92.71
2022-11-24T02:54:15.479Z,93.23
2022-11-24T02:55:15.499Z,93.33
2022-11-24T02:56:15.490Z,93.23
2022-11-24T02:57:15.490Z,92.92
2022-11-24T02:58:15.486Z,92.71
2022-11-24T02:59:15.482Z,93.23
2022-11-24T03:00:15.481Z,92.50
2022-11-24T03:01:15.552Z,92.50
2022-11-24T03:02:15.540Z,92.30
2022-11-24T03:03:15.555Z,92.40
2022-11-24T03:04:15.582Z,92.50
2022-11-24T03:05:15.574Z,92.61
2022-11-24T03:06:15.571Z,92.61
2022-11-24T03:07:15.650Z,93.02
2022-11-24T03:08:15.614Z,93.23
2022-11-24T03:09:15.626Z,92.71
2022-11-24T03:10:15.615Z,92.82
2022-11-24T03:11:15.632Z,92.61
2022-11-24T03:12:15.633Z,92.50
2022-11-24T03:13:15.623Z,92.61
2022-11-24T03:14:15.613Z,92.92
2022-11-24T03:15:15.603Z,93.12
2022-11-24T03:16:15.640Z,92.71
2022-11-24T03:17:15.684Z,92.92
2022-11-24T03:18:15.675Z,93.02
2022-11-24T03:19:15.665Z,93.12
2022-11-24T03:20:15.665Z,93.12
2022-11-24T03:21:15.666Z,93.12
2022-11-24T03:22:15.675Z,92.92
2022-11-24T03:23:15.671Z,93.06
2022-11-24T03:24:15.676Z,93.43
2022-11-24T03:25:15.679Z,93.23
2022-11-24T03:26:15.669Z,93.33
2022-11-24T03:27:15.657Z,93.23
2022-11-24T03:28:15.656Z,92.71
2022-11-24T03:29:15.667Z,93.02
2022-11-24T03:30:15.657Z,93.02
2022-11-24T03:31:15.804Z,93.12
2022-11-24T03:32:15.709Z,93.12
2022-11-24T03:33:15.698Z,93.43
2022-11-24T03:34:15.707Z,93.23
2022-11-24T03:35:15.717Z,93.23
2022-11-24T03:36:15.708Z,93.33
2022-11-24T03:37:15.709Z,93.54
2022-11-24T03:38:15.709Z,93.33
2022-11-24T03:39:15.709Z,93.64
2022-11-24T03:40:15.809Z,93.84
2022-11-24T03:41:15.739Z,93.84
2022-11-24T03:42:15.810Z,93.74
2022-11-24T03:43:15.809Z,93.64
2022-11-24T03:44:15.931Z,93.64
2022-11-24T03:45:44.264Z,93.74
2022-11-24T03:46:15.844Z,93.59
2022-11-24T03:47:15.823Z,93.29
2022-11-24T03:48:15.824Z,92.73
2022-11-24T03:49:15.861Z,92.67
2022-11-24T03:50:15.860Z,92.67
2022-11-24T03:51:15.861Z,92.67
2022-11-24T03:52:15.882Z,92.57
2022-11-24T03:53:15.902Z,92.46
2022-11-24T03:54:15.901Z,92.46
2022-11-24T03:55:15.904Z,92.52
2022-11-24T03:56:15.914Z,92.11
2022-11-24T03:57:15.911Z,92.25
2022-11-24T03:58:15.921Z,92.67
2022-11-24T03:59:15.924Z,92.52
2022-11-24T04:00:15.923Z,92.42
2022-11-24T04:01:16.017Z,91.91
2022-11-24T04:02:16.062Z,92.11
2022-11-24T04:03:15.944Z,92.77
2022-11-24T04:04:15.958Z,92.42
2022-11-24T04:05:15.955Z,92.42
2022-11-24T04:06:15.955Z,92.01
2022-11-24T04:07:15.986Z,91.80
2022-11-24T04:08:16.017Z,91.45
2022-11-24T04:09:16.015Z,91.04
2022-11-24T04:10:16.020Z,91.04
2022-11-24T04:11:16.016Z,90.83
2022-11-24T04:12:16.017Z,91.08
2022-11-24T04:13:16.050Z,91.29
2022-11-24T04:14:16.055Z,91.60
2022-11-24T04:15:16.066Z,91.29
2022-11-24T04:16:16.138Z,91.49
2022-11-24T04:17:16.067Z,91.60
2022-11-24T04:18:16.090Z,91.35
2022-11-24T04:19:16.095Z,91.14
2022-11-24T04:20:16.100Z,91.49
2022-11-24T04:21:16.103Z,91.35
2022-11-24T04:22:16.108Z,91.04
2022-11-24T04:23:16.109Z,91.25
2022-11-24T04:24:16.120Z,90.94
2022-11-24T04:25:16.140Z,91.04
2022-11-24T04:26:16.140Z,90.94
2022-11-24T04:27:16.139Z,90.94
2022-11-24T04:28:16.139Z,90.73
2022-11-24T04:29:16.150Z,90.94
2022-11-24T04:30:16.159Z,90.83
2022-11-24T04:31:16.196Z,90.73
2022-11-24T04:32:16.207Z,91.04
2022-11-24T04:33:16.191Z,90.73
2022-11-24T04:34:16.205Z,90.73
2022-11-24T04:35:16.231Z,90.83
2022-11-24T04:36:16.242Z,90.63
2022-11-24T04:37:16.236Z,90.63
2022-11-24T04:39:19.836Z,90.73
2022-11-24T04:39:23.849Z,90.63
2022-11-24T04:40:16.222Z,90.88
2022-11-24T04:41:16.253Z,91.60
2022-11-24T04:42:16.252Z,91.80
2022-11-24T04:43:16.244Z,92.01
2022-11-24T04:44:16.243Z,91.70
2022-11-24T04:45:16.263Z,91.66
2022-11-24T04:46:16.326Z,91.35
2022-11-24T04:47:16.326Z,91.19
2022-11-24T04:48:16.327Z,91.66
2022-11-24T04:49:16.325Z,91.35
2022-11-24T04:50:16.344Z,91.76
2022-11-24T04:51:16.344Z,91.45
2022-11-24T04:52:16.346Z,91.45
2022-11-24T04:53:16.347Z,91.35
2022-11-24T04:54:16.347Z,91.45
2022-11-24T04:55:16.346Z,91.14
2022-11-24T04:56:16.364Z,91.04
2022-11-24T04:57:16.364Z,90.83
2022-11-24T04:58:16.366Z,91.35
2022-11-24T04:59:16.376Z,91.14
2022-11-24T05:00:16.388Z,91.14
2022-11-24T05:01:16.507Z,91.35
2022-11-24T05:02:16.449Z,91.14
2022-11-24T05:03:16.473Z,90.94
2022-11-24T05:04:16.512Z,90.94
2022-11-24T05:05:16.519Z,90.73
2022-11-24T05:06:16.527Z,90.63
2022-11-24T05:07:18.804Z,90.53
2022-11-24T05:08:16.567Z,90.78
2022-11-24T05:09:16.570Z,90.98
2022-11-24T05:10:16.588Z,91.49
2022-11-24T05:11:16.588Z,92.11
2022-11-24T05:12:16.591Z,92.11
2022-11-24T05:13:16.610Z,91.91
2022-11-24T05:14:16.610Z,92.01
2022-11-24T05:15:16.629Z,91.91
2022-11-24T05:16:16.680Z,91.80
2022-11-24T05:17:16.640Z,91.66
2022-11-24T05:18:16.661Z,91.35
2022-11-24T05:19:16.723Z,91.04
2022-11-24T05:20:16.721Z,90.83
2022-11-24T05:21:16.732Z,91.14
2022-11-24T05:22:16.733Z,91.04
2022-11-24T05:23:16.751Z,91.29
2022-11-24T05:24:16.762Z,91.49
2022-11-24T05:25:16.763Z,91.76
2022-11-24T05:26:16.776Z,91.35
2022-11-24T05:27:16.794Z,91.25
2022-11-24T05:28:16.805Z,91.14
2022-11-24T05:29:16.794Z,91.55
2022-11-24T05:30:16.793Z,91.35
2022-11-24T05:31:16.870Z,90.69
2022-11-24T05:32:16.806Z,90.28
2022-11-24T05:33:16.784Z,90.08
2022-11-24T05:34:16.855Z,89.97
2022-11-24T05:35:16.875Z,90.08
2022-11-24T05:36:16.864Z,90.38
2022-11-24T05:37:16.859Z,90.18
2022-11-24T05:38:16.846Z,90.28
2022-11-24T05:39:16.846Z,90.28
2022-11-24T05:40:16.843Z,89.87
2022-11-24T05:41:16.868Z,90.08
2022-11-24T05:42:16.878Z,89.66
2022-11-24T05:43:16.876Z,89.76
2022-11-24T05:44:16.926Z,90.28
2022-11-24T05:45:16.907Z,90.08
2022-11-24T05:46:16.981Z,90.12
2022-11-24T05:47:16.937Z,90.32
2022-11-24T05:48:16.946Z,90.28
2022-11-24T05:49:16.926Z,90.18
2022-11-24T05:50:16.934Z,89.87
2022-11-24T05:51:16.949Z,90.08
2022-11-24T05:52:16.977Z,90.12
2022-11-24T05:53:16.968Z,90.38
2022-11-24T05:54:16.958Z,89.97
2022-11-24T05:55:16.968Z,89.76
2022-11-24T05:56:16.979Z,89.87
2022-11-24T05:57:17.031Z,89.76
2022-11-24T05:58:17.049Z,89.76
2022-11-24T05:59:17.047Z,89.56
2022-11-24T06:00:17.051Z,89.46
2022-11-24T06:01:17.078Z,89.56
2022-11-24T06:02:17.233Z,89.36
2022-11-24T06:03:17.194Z,89.46
2022-11-24T06:04:17.151Z,89.46
2022-11-24T06:05:17.155Z,89.56
2022-11-24T06:06:17.152Z,89.66
2022-11-24T06:07:17.198Z,89.76
2022-11-24T06:08:17.151Z,89.66
2022-11-24T06:09:17.150Z,89.56
2022-11-24T06:10:17.191Z,89.66
2022-11-24T06:11:17.359Z,89.87
2022-11-24T06:12:17.191Z,89.76
2022-11-24T06:13:17.288Z,89.97
2022-11-24T06:14:17.223Z,89.76
2022-11-24T06:15:17.223Z,89.56
2022-11-24T06:16:17.317Z,89.76
2022-11-24T06:17:17.275Z,89.76
2022-11-24T06:18:17.273Z,89.52
2022-11-24T06:19:17.414Z,89.01
2022-11-24T06:20:17.343Z,89.11
2022-11-24T06:21:17.344Z,89.25
2022-11-24T06:22:17.405Z,89.76
2022-11-24T06:23:17.406Z,89.83
2022-11-24T06:24:17.406Z,89.31
2022-11-24T06:25:17.404Z,89.17
2022-11-24T06:26:17.427Z,88.76
2022-11-24T06:27:17.425Z,88.45
2022-11-24T06:28:17.430Z,88.49
2022-11-24T06:29:17.417Z,89.42
2022-11-24T06:30:17.417Z,89.62
2022-11-24T06:31:17.503Z,89.42
2022-11-24T06:32:17.465Z,89.66
2022-11-24T06:33:17.469Z,90.14
2022-11-24T06:34:17.450Z,90.03
2022-11-24T06:35:17.471Z,89.83
2022-11-24T06:36:17.480Z,89.52
2022-11-24T06:37:17.488Z,89.72
2022-11-24T06:38:22.940Z,89.72
2022-11-24T06:39:17.495Z,89.72
2022-11-24T06:40:17.517Z,89.72
2022-11-24T06:41:17.529Z,89.62
2022-11-24T06:42:17.526Z,89.58
2022-11-24T06:43:17.550Z,89.78
2022-11-24T06:44:17.578Z,89.93
2022-11-24T06:45:17.609Z,89.93
2022-11-24T06:46:17.707Z,89.69
2022-11-24T06:47:17.640Z,89.58
2022-11-24T06:48:17.671Z,89.27
2022-11-24T06:49:17.681Z,89.48
2022-11-24T06:50:17.726Z,89.37
2022-11-24T06:51:17.744Z,89.48
2022-11-24T06:52:17.771Z,89.48
2022-11-24T06:53:17.782Z,89.58
2022-11-24T06:54:17.855Z,89.89
2022-11-24T06:55:17.877Z,89.78
2022-11-24T06:56:17.893Z,89.78
2022-11-24T06:57:17.913Z,90.20
2022-11-24T06:58:17.932Z,89.89
2022-11-24T06:59:17.953Z,90.09
2022-11-24T07:00:18.054Z,89.58
2022-11-24T07:01:18.051Z,89.58
2022-11-24T07:02:18.014Z,89.69
2022-11-24T07:03:18.080Z,89.48
2022-11-24T07:04:18.094Z,89.58
2022-11-24T07:05:18.144Z,89.43
2022-11-24T07:06:18.126Z,89.33
2022-11-24T07:07:18.245Z,89.58
2022-11-24T07:08:18.250Z,89.43
2022-11-24T07:09:18.226Z,89.84
2022-11-24T07:10:18.301Z,89.89
2022-11-24T07:11:18.306Z,89.95
2022-11-24T07:12:18.387Z,89.89
2022-11-24T07:13:18.356Z,89.99
2022-11-24T07:14:18.386Z,89.75
2022-11-24T07:15:18.407Z,89.69
2022-11-24T07:16:18.476Z,89.64
2022-11-24T07:17:18.489Z,89.64
2022-11-24T07:18:18.527Z,89.43
2022-11-24T07:19:24.402Z,89.64
2022-11-24T07:20:18.588Z,89.95
2022-11-24T07:21:18.642Z,90.36
2022-11-24T07:22:18.699Z,89.95
2022-11-24T07:23:18.761Z,90.61
2022-11-24T07:24:19.449Z,90.71
2022-11-24T07:25:18.810Z,91.22
2022-11-24T07:26:18.820Z,91.12
2022-11-24T07:27:18.830Z,91.12
2022-11-24T07:32:36.886Z,90.87
2022-11-24T07:33:36.935Z,91.28
2022-11-24T07:34:37.245Z,91.08
2022-11-24T07:35:37.027Z,91.02
2022-11-24T07:36:37.097Z,91.94
2022-11-24T07:37:37.136Z,92.40
2022-11-24T07:38:37.158Z,93.01
2022-11-24T07:39:37.217Z,93.12
2022-11-24T07:40:37.229Z,93.12
2022-11-24T07:41:37.238Z,93.17
2022-11-24T07:42:37.277Z,92.86
2022-11-24T07:43:37.327Z,92.76
2022-11-24T07:44:37.368Z,92.97
2022-11-24T07:45:37.425Z,92.66
2022-11-24T07:46:37.471Z,92.86
2022-11-24T07:47:37.478Z,92.66
2022-11-24T07:48:37.507Z,92.41
2022-11-24T07:49:37.560Z,92.41
2022-11-24T07:50:37.530Z,92.35
2022-11-24T07:51:37.597Z,92.61
2022-11-24T07:52:37.650Z,92.86
2022-11-24T07:53:37.661Z,92.61
2022-11-24T07:54:37.722Z,92.51
2022-11-24T07:55:37.689Z,92.51
2022-11-24T07:56:37.721Z,92.61
2022-11-24T07:57:37.744Z,92.51
2022-11-24T07:58:37.771Z,92.66
2022-11-24T07:59:37.783Z,92.82
2022-11-24T08:00:37.834Z,92.61
2022-11-24T08:01:37.971Z,92.72
2022-11-24T08:02:37.932Z,92.82
2022-11-24T08:03:37.993Z,92.31
2022-11-24T08:04:37.991Z,92.10
2022-11-24T08:05:49.149Z,92.41
2022-11-24T08:06:42.084Z,92.21
2022-11-24T08:07:38.158Z,92.36
2022-11-24T08:08:38.112Z,91.96
2022-11-24T08:09:38.093Z,91.55
2022-11-24T08:10:38.155Z,91.35
2022-11-24T08:11:38.234Z,91.35
2022-11-24T08:12:38.215Z,91.44
2022-11-24T08:13:38.295Z,91.65
2022-11-24T08:14:38.284Z,91.71
2022-11-24T08:15:38.276Z,91.09
2022-11-24T08:16:38.631Z,90.89
2022-11-24T08:17:38.356Z,90.69
2022-11-24T08:18:38.361Z,90.69
2022-11-24T08:19:38.376Z,90.79
2022-11-24T08:20:38.366Z,91.09
2022-11-24T08:21:38.366Z,90.93
2022-11-24T08:22:38.357Z,91.65
2022-11-24T08:23:38.419Z,91.55
2022-11-24T08:24:38.443Z,91.55
2022-11-24T08:25:38.438Z,91.40
2022-11-24T08:26:38.507Z,90.99
2022-11-24T08:27:38.578Z,90.75
2022-11-24T08:28:38.658Z,90.44
2022-11-24T08:29:38.687Z,90.23
2022-11-24T08:30:38.687Z,89.83
2022-11-24T08:31:38.743Z,89.92
2022-11-24T08:32:38.681Z,89.72
2022-11-24T08:33:38.739Z,89.58
2022-11-24T08:34:38.811Z,89.37
2022-11-24T08:35:38.790Z,88.76
2022-11-24T08:36:38.870Z,88.86
2022-11-24T08:37:38.882Z,88.65
2022-11-24T08:38:38.861Z,88.76
2022-11-24T08:39:38.924Z,88.96
2022-11-24T08:40:39.012Z,88.90
2022-11-24T08:41:39.692Z,89.31
2022-11-24T08:42:39.091Z,89.27
2022-11-24T08:43:39.122Z,89.27
2022-11-24T08:44:39.102Z,89.06
2022-11-24T08:45:41.664Z,89.06
2022-11-24T08:46:39.232Z,89.06
2022-11-24T08:47:39.213Z,88.86
2022-11-24T08:48:39.285Z,88.86
2022-11-24T08:49:39.277Z,88.45
2022-11-24T08:50:39.325Z,88.41
2022-11-24T08:51:39.341Z,88.00
2022-11-24T08:52:39.338Z,87.79
2022-11-24T08:53:39.335Z,87.35
2022-11-24T08:54:39.346Z,86.94
2022-11-24T08:55:39.358Z,87.14
2022-11-24T08:56:39.336Z,87.04
2022-11-24T08:57:39.336Z,86.83
2022-11-24T08:58:39.364Z,87.08
2022-11-24T08:59:39.387Z,87.84
2022-11-24T09:00:39.457Z,88.14
2022-11-24T09:01:39.507Z,87.84
2022-11-24T09:02:39.487Z,88.24
2022-11-24T09:03:42.341Z,88.10
2022-11-24T09:04:39.624Z,87.59
2022-11-24T09:05:54.964Z,87.49
2022-11-24T09:06:39.608Z,87.43
2022-11-24T09:07:39.748Z,88.04
2022-11-24T09:08:39.668Z,87.63
2022-11-24T09:09:39.729Z,87.73
2022-11-24T09:10:39.779Z,87.70
2022-11-24T09:11:39.862Z,87.59
2022-11-24T09:12:39.920Z,86.88
2022-11-24T09:13:39.981Z,86.43
2022-11-24T09:14:40.002Z,86.77
2022-11-24T09:15:40.052Z,87.08
2022-11-24T09:16:40.080Z,87.08
2022-11-24T09:17:40.023Z,86.83
2022-11-24T09:18:40.034Z,86.73
2022-11-24T09:19:40.004Z,86.73
2022-11-24T09:20:40.002Z,86.46
2022-11-24T09:21:40.032Z,86.91
2022-11-24T09:22:40.082Z,87.18
2022-11-24T09:23:40.117Z,87.53
2022-11-24T09:24:40.192Z,87.53
2022-11-24T09:25:40.190Z,87.38
2022-11-24T09:26:46.135Z,87.22
2022-11-24T09:27:40.276Z,87.59
2022-11-24T09:28:40.326Z,87.18
2022-11-24T09:29:40.392Z,87.29
2022-11-24T09:30:40.490Z,87.08
2022-11-24T09:31:40.428Z,86.98
2022-11-24T09:32:40.496Z,87.29
2022-11-24T09:33:40.485Z,87.14
2022-11-24T09:34:40.506Z,86.67
2022-11-24T09:35:40.562Z,87.18
2022-11-24T09:36:40.659Z,87.08
2022-11-24T09:37:40.629Z,87.04
2022-11-24T09:38:40.675Z,86.98
2022-11-24T09:39:40.698Z,87.18
2022-11-24T09:40:40.697Z,87.43
2022-11-24T09:41:40.748Z,87.22
2022-11-24T09:42:40.742Z,87.43
2022-11-24T09:43:40.788Z,87.43
2022-11-24T09:44:40.838Z,87.08
2022-11-24T09:46:07.043Z,86.77
2022-11-24T09:46:40.959Z,86.88
2022-11-24T09:47:40.939Z,86.26
2022-11-24T09:48:41.009Z,86.16
2022-11-24T09:49:40.990Z,86.36
2022-11-24T09:50:41.041Z,86.02
2022-11-24T09:51:41.121Z,85.71
2022-11-24T09:52:41.170Z,85.91
2022-11-24T09:53:41.220Z,85.64
2022-11-24T09:54:41.212Z,85.96
2022-11-24T09:55:41.284Z,85.91
2022-11-24T09:56:41.292Z,86.05
2022-11-24T09:57:41.292Z,86.16
2022-11-24T09:58:41.292Z,86.05
2022-11-24T09:59:41.333Z,85.85
2022-11-24T10:00:41.341Z,86.26
2022-11-24T10:01:41.433Z,86.05
2022-11-24T10:02:41.413Z,85.96
2022-11-24T10:03:41.483Z,86.05
2022-11-24T10:04:41.643Z,86.05
2022-11-24T10:05:41.594Z,86.51
2022-11-24T10:06:41.656Z,86.57
2022-11-24T10:07:41.719Z,86.05
2022-11-24T10:08:41.716Z,85.44
2022-11-24T10:09:41.785Z,85.64
2022-11-24T10:10:41.796Z,86.05
2022-11-24T10:11:41.806Z,86.26
2022-11-24T10:12:41.838Z,85.91
2022-11-24T10:13:41.837Z,85.20
2022-11-24T10:14:41.847Z,85.44
2022-11-24T10:15:41.877Z,85.55
2022-11-24T10:16:41.857Z,85.50
2022-11-24T10:17:41.867Z,85.10
2022-11-24T10:18:41.899Z,84.65
2022-11-24T10:19:42.188Z,84.69
2022-11-24T10:20:41.989Z,84.89
2022-11-24T10:21:41.998Z,84.89
2022-11-24T10:22:42.019Z,84.89
2022-11-24T10:23:41.999Z,85.10
2022-11-24T10:24:41.989Z,85.26
2022-11-24T10:25:42.005Z,84.24
2022-11-24T10:26:42.031Z,83.83
2022-11-24T10:27:42.001Z,84.07
2022-11-24T10:28:42.028Z,84.38
2022-11-24T10:29:41.979Z,84.89
2022-11-24T10:30:42.115Z,84.69
2022-11-24T10:31:42.071Z,85.30
2022-11-24T10:32:42.125Z,85.44
2022-11-24T10:33:42.121Z,85.55
2022-11-24T10:34:42.128Z,85.75
2022-11-24T10:35:42.166Z,85.96
2022-11-24T10:36:42.177Z,86.26
2022-11-24T10:37:42.202Z,86.98
2022-11-24T10:38:42.223Z,87.43
2022-11-24T10:39:42.190Z,88.04
2022-11-24T10:40:56.884Z,88.10
2022-11-24T10:41:42.268Z,88.20
2022-11-24T10:42:42.334Z,88.76
2022-11-24T10:43:42.400Z,88.51
2022-11-24T10:44:42.427Z,88.45
2022-11-24T10:45:42.490Z,88.56
2022-11-24T10:46:42.600Z,88.51
2022-11-24T10:47:42.563Z,88.82
2022-11-24T10:48:42.635Z,88.51
2022-11-24T10:49:42.636Z,88.35
2022-11-24T10:50:42.678Z,88.76
2022-11-24T10:51:42.697Z,88.86
2022-11-24T10:52:42.756Z,88.65
2022-11-24T10:53:42.798Z,88.39
2022-11-24T10:54:42.827Z,89.31
2022-11-24T10:55:42.867Z,89.31
2022-11-24T10:56:42.891Z,89.42
2022-11-24T10:57:42.918Z,89.92
2022-11-24T10:58:42.922Z,89.68
2022-11-24T10:59:42.968Z,89.62
2022-11-24T11:00:43.020Z,90.23
2022-11-24T11:01:43.060Z,90.44
2022-11-24T11:02:43.071Z,90.84
2022-11-24T11:03:43.083Z,90.91
2022-11-24T11:04:43.151Z,90.75
2022-11-24T11:05:43.171Z,91.16
2022-11-24T11:06:43.240Z,91.61
2022-11-24T11:07:43.340Z,91.97
2022-11-24T11:08:43.332Z,91.97
2022-11-24T11:09:43.353Z,92.18
2022-11-24T11:10:43.382Z,91.67
2022-11-24T11:11:43.416Z,91.77
2022-11-24T11:12:45.050Z,91.67
2022-11-24T11:13:43.454Z,91.56
2022-11-24T11:14:43.461Z,91.67
2022-11-24T11:15:43.465Z,91.56
2022-11-24T11:16:43.474Z,90.75
2022-11-24T11:17:43.462Z,91.09
2022-11-24T11:18:43.474Z,91.16
2022-11-24T11:19:51.406Z,91.26
2022-11-24T11:20:43.474Z,90.95
2022-11-24T11:21:43.554Z,91.16
2022-11-24T11:22:43.603Z,90.19
2022-11-24T11:23:43.673Z,90.13
2022-11-24T11:24:43.682Z,90.19
2022-11-24T11:25:43.684Z,90.05
2022-11-24T11:26:43.727Z,89.53
2022-11-24T11:27:43.795Z,89.29
2022-11-24T11:28:43.792Z,87.85
2022-11-24T11:34:02.822Z,87.35
2022-11-24T11:34:43.988Z,86.22
2022-11-24T11:35:43.997Z,86.43
2022-11-24T11:36:44.066Z,86.77
2022-11-24T11:37:44.052Z,87.59
2022-11-24T11:38:44.072Z,87.29
2022-11-24T11:39:48.614Z,86.16
2022-11-24T11:40:44.119Z,86.61
2022-11-24T11:41:44.150Z,86.67
2022-11-24T11:43:02.021Z,86.36
2022-11-24T11:43:44.189Z,86.67
2022-11-24T11:44:44.221Z,86.16
2022-11-24T11:45:44.280Z,86.36
2022-11-24T11:46:44.266Z,86.67
2022-11-24T11:47:44.261Z,86.46
2022-11-24T11:48:44.320Z,86.46
2022-11-24T11:49:44.375Z,86.67
2022-11-24T11:51:14.955Z,87.22
2022-11-24T11:51:44.588Z,87.88
2022-11-24T11:52:44.554Z,88.08
2022-11-24T11:53:44.544Z,87.77
2022-11-24T11:54:44.605Z,88.39
2022-11-24T11:55:49.739Z,88.59
2022-11-24T11:56:44.652Z,88.59
2022-11-24T11:57:44.663Z,88.18
2022-11-24T11:58:44.663Z,87.73
2022-11-24T11:59:44.703Z,87.77
2022-11-24T12:00:44.692Z,87.98
2022-11-24T12:01:44.784Z,87.98
2022-11-24T12:02:49.960Z,88.08
2022-11-24T12:03:44.947Z,88.08
2022-11-24T12:04:44.859Z,87.94
2022-11-24T12:05:44.919Z,87.37
2022-11-24T12:06:44.916Z,87.84
2022-11-24T12:07:44.972Z,87.32
2022-11-24T12:09:18.051Z,87.57
2022-11-24T12:09:44.986Z,87.73
2022-11-24T12:10:44.999Z,87.77
2022-11-24T12:11:45.046Z,87.88
2022-11-24T12:12:45.097Z,87.53
2022-11-24T12:13:45.137Z,87.84
2022-11-24T12:14:45.177Z,87.43
2022-11-24T12:15:45.260Z,87.22
2022-11-24T12:16:45.268Z,87.22
2022-11-24T12:17:45.295Z,87.22
2022-11-24T12:19:00.734Z,87.32
2022-11-24T12:19:45.320Z,87.47
2022-11-24T12:20:45.308Z,88.08
2022-11-24T12:21:45.379Z,87.98
2022-11-24T12:22:45.420Z,88.18
2022-11-24T12:23:45.440Z,88.18
2022-11-24T12:24:45.482Z,88.33
2022-11-24T12:25:45.498Z,87.61
2022-11-24T12:26:45.540Z,87.82
2022-11-24T12:27:45.631Z,88.12
2022-11-24T12:28:45.674Z,87.51
2022-11-24T12:29:45.724Z,87.06
2022-11-24T12:30:45.774Z,86.85
2022-11-24T12:31:45.804Z,86.75
2022-11-24T12:32:45.771Z,86.44
2022-11-24T12:33:50.944Z,86.20
2022-11-24T12:34:45.803Z,85.79
2022-11-24T12:35:45.822Z,85.58
2022-11-24T12:36:45.834Z,85.38
2022-11-24T12:37:45.894Z,85.28
2022-11-24T12:38:45.904Z,85.28
2022-11-24T12:39:45.905Z,85.42
2022-11-24T12:40:47.293Z,85.89
2022-11-24T12:41:46.019Z,85.63
2022-11-24T12:42:46.054Z,85.83
2022-11-24T12:43:46.076Z,85.79
2022-11-24T12:44:46.084Z,85.64
2022-11-24T12:45:46.103Z,85.17
2022-11-24T12:46:46.143Z,85.58
2022-11-24T12:47:46.166Z,85.28
2022-11-24T12:48:46.146Z,85.24
2022-11-24T12:49:46.207Z,84.93
2022-11-24T12:50:46.275Z,85.28
2022-11-24T12:51:46.284Z,85.48
2022-11-24T12:52:46.297Z,85.48
2022-11-24T12:53:46.288Z,85.52
2022-11-24T12:54:46.347Z,85.72
2022-11-24T12:55:46.347Z,86.14
2022-11-24T12:56:46.371Z,85.89
2022-11-24T12:57:46.377Z,85.69
2022-11-24T12:58:46.450Z,85.48
2022-11-24T12:59:46.471Z,85.58
2022-11-24T13:00:46.514Z,85.93